sensor_id;sensor_type;location;lat;lon;timestamp;temperature;humidity
851;DHT22;412;51.400;7.480;2022-12-18T00:01:40;1.10;87.40
851;DHT22;412;51.400;7.480;2022-12-18T00:04:10;1.10;86.10
851;DHT22;412;51.400;7.480;2022-12-18T00:06:39;1.00;84.60
851;DHT22;412;51.400;7.480;2022-12-18T00:09:05;0.90;84.00
851;DHT22;412;51.400;7.480;2022-12-18T00:11:31;0.90;85.00
851;DHT22;412;51.400;7.480;2022-12-18T00:13:58;0.90;85.40
851;DHT22;412;51.400;7.480;2022-12-18T00:16:26;0.90;85.90
851;DHT22;412;51.400;7.480;2022-12-18T00:18:55;0.90;86.00
851;DHT22;412;51.400;7.480;2022-12-18T00:21:24;0.90;85.70
851;DHT22;412;51.400;7.480;2022-12-18T00:23:50;0.80;86.00
851;DHT22;412;51.400;7.480;2022-12-18T00:26:22;0.80;86.80
851;DHT22;412;51.400;7.480;2022-12-18T00:28:47;0.80;86.00
851;DHT22;412;51.400;7.480;2022-12-18T00:31:16;0.70;85.10
851;DHT22;412;51.400;7.480;2022-12-18T00:33:42;0.70;85.20
851;DHT22;412;51.400;7.480;2022-12-18T00:36:11;0.70;85.50
851;DHT22;412;51.400;7.480;2022-12-18T00:38:38;0.60;85.80
851;DHT22;412;51.400;7.480;2022-12-18T00:41:04;0.60;85.90
851;DHT22;412;51.400;7.480;2022-12-18T00:43:30;0.60;85.10
851;DHT22;412;51.400;7.480;2022-12-18T00:45:56;0.50;85.20
851;DHT22;412;51.400;7.480;2022-12-18T00:48:22;0.50;86.40
851;DHT22;412;51.400;7.480;2022-12-18T00:50:49;0.50;87.40
851;DHT22;412;51.400;7.480;2022-12-18T00:53:15;0.50;88.30
851;DHT22;412;51.400;7.480;2022-12-18T00:55:41;0.50;88.80
851;DHT22;412;51.400;7.480;2022-12-18T00:58:08;0.50;89.10
851;DHT22;412;51.400;7.480;2022-12-18T01:00:35;0.50;89.00
851;DHT22;412;51.400;7.480;2022-12-18T01:03:00;0.50;88.20
851;DHT22;412;51.400;7.480;2022-12-18T01:05:26;0.50;88.60
851;DHT22;412;51.400;7.480;2022-12-18T01:07:52;0.50;89.20
851;DHT22;412;51.400;7.480;2022-12-18T01:10:18;0.50;89.30
851;DHT22;412;51.400;7.480;2022-12-18T01:12:44;0.60;89.10
851;DHT22;412;51.400;7.480;2022-12-18T01:15:11;0.60;88.80
851;DHT22;412;51.400;7.480;2022-12-18T01:17:37;0.60;88.90
851;DHT22;412;51.400;7.480;2022-12-18T01:20:04;0.60;89.10
851;DHT22;412;51.400;7.480;2022-12-18T01:22:30;0.70;89.00
851;DHT22;412;51.400;7.480;2022-12-18T01:24:56;0.70;88.40
851;DHT22;412;51.400;7.480;2022-12-18T01:27:21;0.70;87.70
851;DHT22;412;51.400;7.480;2022-12-18T01:29:48;0.70;87.00
851;DHT22;412;51.400;7.480;2022-12-18T01:32:14;0.70;87.90
851;DHT22;412;51.400;7.480;2022-12-18T01:34:39;0.70;88.00
851;DHT22;412;51.400;7.480;2022-12-18T01:37:05;0.60;87.90
851;DHT22;412;51.400;7.480;2022-12-18T01:39:32;0.60;87.70
851;DHT22;412;51.400;7.480;2022-12-18T01:41:59;0.60;87.70
851;DHT22;412;51.400;7.480;2022-12-18T01:44:54;0.60;88.00
851;DHT22;412;51.400;7.480;2022-12-18T01:49:50;0.50;88.20
851;DHT22;412;51.400;7.480;2022-12-18T01:52:16;0.50;87.70
851;DHT22;412;51.400;7.480;2022-12-18T01:54:43;0.50;87.20
851;DHT22;412;51.400;7.480;2022-12-18T01:57:09;0.50;86.90
851;DHT22;412;51.400;7.480;2022-12-18T01:59:36;0.50;87.80
851;DHT22;412;51.400;7.480;2022-12-18T02:02:03;0.50;87.50
851;DHT22;412;51.400;7.480;2022-12-18T02:04:29;0.40;87.40
851;DHT22;412;51.400;7.480;2022-12-18T02:07:12;0.40;87.00
851;DHT22;412;51.400;7.480;2022-12-18T02:10:10;0.40;87.50
851;DHT22;412;51.400;7.480;2022-12-18T02:15:39;0.40;89.20
851;DHT22;412;51.400;7.480;2022-12-18T02:18:23;0.50;89.60
851;DHT22;412;51.400;7.480;2022-12-18T02:21:12;0.50;88.40
851;DHT22;412;51.400;7.480;2022-12-18T02:26:42;0.50;89.20
851;DHT22;412;51.400;7.480;2022-12-18T02:29:24;0.50;88.90
851;DHT22;412;51.400;7.480;2022-12-18T02:31:58;0.50;88.90
851;DHT22;412;51.400;7.480;2022-12-18T02:34:31;0.50;88.60
851;DHT22;412;51.400;7.480;2022-12-18T02:37:01;0.50;87.90
851;DHT22;412;51.400;7.480;2022-12-18T02:39:29;0.40;88.30
851;DHT22;412;51.400;7.480;2022-12-18T02:41:57;0.40;89.30
851;DHT22;412;51.400;7.480;2022-12-18T02:44:23;0.40;88.40
851;DHT22;412;51.400;7.480;2022-12-18T02:46:52;0.40;89.00
851;DHT22;412;51.400;7.480;2022-12-18T02:54:46;0.40;90.10
851;DHT22;412;51.400;7.480;2022-12-18T03:08:12;0.60;89.70
851;DHT22;412;51.400;7.480;2022-12-18T03:10:45;0.60;89.50
851;DHT22;412;51.400;7.480;2022-12-18T03:13:18;0.60;89.60
851;DHT22;412;51.400;7.480;2022-12-18T03:15:47;0.60;89.30
851;DHT22;412;51.400;7.480;2022-12-18T03:18:25;0.60;89.40
851;DHT22;412;51.400;7.480;2022-12-18T03:20:52;0.60;90.20
851;DHT22;412;51.400;7.480;2022-12-18T03:23:24;0.60;90.30
851;DHT22;412;51.400;7.480;2022-12-18T03:25:54;0.60;90.10
851;DHT22;412;51.400;7.480;2022-12-18T03:28:22;0.60;90.30
851;DHT22;412;51.400;7.480;2022-12-18T03:30:52;0.60;90.60
851;DHT22;412;51.400;7.480;2022-12-18T03:33:28;0.70;90.80
851;DHT22;412;51.400;7.480;2022-12-18T03:35:55;0.70;91.10
851;DHT22;412;51.400;7.480;2022-12-18T03:38:21;0.80;91.50
851;DHT22;412;51.400;7.480;2022-12-18T03:40:53;0.90;91.50
851;DHT22;412;51.400;7.480;2022-12-18T03:46:07;1.00;90.70
851;DHT22;412;51.400;7.480;2022-12-18T03:48:43;1.00;90.50
851;DHT22;412;51.400;7.480;2022-12-18T03:51:16;0.90;90.00
851;DHT22;412;51.400;7.480;2022-12-18T03:54:02;0.90;88.00
851;DHT22;412;51.400;7.480;2022-12-18T03:56:33;0.80;86.90
851;DHT22;412;51.400;7.480;2022-12-18T03:59:02;0.70;85.40
851;DHT22;412;51.400;7.480;2022-12-18T04:01:35;0.60;85.20
851;DHT22;412;51.400;7.480;2022-12-18T04:04:04;0.50;87.00
851;DHT22;412;51.400;7.480;2022-12-18T04:06:31;0.50;87.50
851;DHT22;412;51.400;7.480;2022-12-18T04:09:00;0.40;87.40
851;DHT22;412;51.400;7.480;2022-12-18T04:11:26;0.40;89.50
851;DHT22;412;51.400;7.480;2022-12-18T04:13:56;0.50;90.10
851;DHT22;412;51.400;7.480;2022-12-18T04:16:23;0.50;88.70
851;DHT22;412;51.400;7.480;2022-12-18T04:18:49;0.50;87.40
851;DHT22;412;51.400;7.480;2022-12-18T04:21:15;0.40;86.60
851;DHT22;412;51.400;7.480;2022-12-18T04:23:40;0.40;86.10
851;DHT22;412;51.400;7.480;2022-12-18T04:26:06;0.30;85.90
851;DHT22;412;51.400;7.480;2022-12-18T04:28:32;0.30;86.30
851;DHT22;412;51.400;7.480;2022-12-18T04:30:58;0.30;86.50
851;DHT22;412;51.400;7.480;2022-12-18T04:33:23;0.20;87.60
851;DHT22;412;51.400;7.480;2022-12-18T04:35:49;0.20;88.40
851;DHT22;412;51.400;7.480;2022-12-18T04:38:15;-0.30;88.00
851;DHT22;412;51.400;7.480;2022-12-18T04:40:41;0.10;87.30
851;DHT22;412;51.400;7.480;2022-12-18T04:43:06;0.00;86.30
851;DHT22;412;51.400;7.480;2022-12-18T04:45:32;0.00;86.10
851;DHT22;412;51.400;7.480;2022-12-18T04:47:59;-0.10;85.60
851;DHT22;412;51.400;7.480;2022-12-18T04:50:25;-0.20;84.90
851;DHT22;412;51.400;7.480;2022-12-18T04:53:00;-0.30;84.60
851;DHT22;412;51.400;7.480;2022-12-18T04:55:26;-0.40;84.80
851;DHT22;412;51.400;7.480;2022-12-18T04:57:53;-0.40;84.90
851;DHT22;412;51.400;7.480;2022-12-18T05:00:19;-0.50;85.40
851;DHT22;412;51.400;7.480;2022-12-18T05:02:45;-0.50;85.30
851;DHT22;412;51.400;7.480;2022-12-18T05:05:10;-0.50;85.70
851;DHT22;412;51.400;7.480;2022-12-18T05:07:36;-0.60;85.90
851;DHT22;412;51.400;7.480;2022-12-18T05:10:02;-0.60;86.00
851;DHT22;412;51.400;7.480;2022-12-18T05:12:28;-0.50;86.50
851;DHT22;412;51.400;7.480;2022-12-18T05:14:54;-0.60;86.70
851;DHT22;412;51.400;7.480;2022-12-18T05:17:19;-0.50;87.30
851;DHT22;412;51.400;7.480;2022-12-18T05:19:45;-0.50;87.10
851;DHT22;412;51.400;7.480;2022-12-18T05:22:11;-0.60;86.50
851;DHT22;412;51.400;7.480;2022-12-18T05:24:37;-0.60;86.10
851;DHT22;412;51.400;7.480;2022-12-18T05:27:03;-0.70;85.70
851;DHT22;412;51.400;7.480;2022-12-18T05:29:29;-0.70;85.60
851;DHT22;412;51.400;7.480;2022-12-18T05:31:54;-0.70;86.10
851;DHT22;412;51.400;7.480;2022-12-18T05:34:20;-0.80;86.70
851;DHT22;412;51.400;7.480;2022-12-18T05:36:46;-0.70;87.60
851;DHT22;412;51.400;7.480;2022-12-18T05:39:12;-0.70;88.50
851;DHT22;412;51.400;7.480;2022-12-18T05:41:38;-0.70;89.20
851;DHT22;412;51.400;7.480;2022-12-18T05:44:03;-0.80;88.10
851;DHT22;412;51.400;7.480;2022-12-18T05:46:29;-0.80;87.40
851;DHT22;412;51.400;7.480;2022-12-18T05:48:55;-0.80;87.50
851;DHT22;412;51.400;7.480;2022-12-18T05:51:24;-0.90;87.40
851;DHT22;412;51.400;7.480;2022-12-18T05:53:49;-0.90;86.80
851;DHT22;412;51.400;7.480;2022-12-18T05:56:18;-1.00;86.80
851;DHT22;412;51.400;7.480;2022-12-18T05:58:44;-1.00;86.80
851;DHT22;412;51.400;7.480;2022-12-18T06:01:18;-1.00;86.30
851;DHT22;412;51.400;7.480;2022-12-18T06:03:44;-1.10;86.00
851;DHT22;412;51.400;7.480;2022-12-18T06:06:15;-1.10;86.30
851;DHT22;412;51.400;7.480;2022-12-18T06:08:41;-1.10;85.50
851;DHT22;412;51.400;7.480;2022-12-18T06:11:07;-1.20;85.50
851;DHT22;412;51.400;7.480;2022-12-18T06:13:32;-1.20;85.70
851;DHT22;412;51.400;7.480;2022-12-18T06:16:02;-1.20;86.00
851;DHT22;412;51.400;7.480;2022-12-18T06:18:28;-1.20;87.20
851;DHT22;412;51.400;7.480;2022-12-18T06:20:58;-1.20;88.00
851;DHT22;412;51.400;7.480;2022-12-18T06:23:24;-1.10;88.70
851;DHT22;412;51.400;7.480;2022-12-18T06:25:50;-1.10;89.20
851;DHT22;412;51.400;7.480;2022-12-18T06:28:16;-1.10;89.80
851;DHT22;412;51.400;7.480;2022-12-18T06:30:45;-1.10;89.60
851;DHT22;412;51.400;7.480;2022-12-18T06:33:11;-1.10;90.20
851;DHT22;412;51.400;7.480;2022-12-18T06:35:37;-1.10;90.50
851;DHT22;412;51.400;7.480;2022-12-18T06:38:03;-1.10;90.60
851;DHT22;412;51.400;7.480;2022-12-18T06:40:29;-1.10;90.80
851;DHT22;412;51.400;7.480;2022-12-18T06:42:55;-1.00;90.90
851;DHT22;412;51.400;7.480;2022-12-18T06:45:21;-1.00;91.10
851;DHT22;412;51.400;7.480;2022-12-18T06:47:47;-1.00;91.40
851;DHT22;412;51.400;7.480;2022-12-18T06:50:13;-0.90;91.50
851;DHT22;412;51.400;7.480;2022-12-18T06:52:39;-0.90;91.50
851;DHT22;412;51.400;7.480;2022-12-18T06:55:06;-0.80;91.20
851;DHT22;412;51.400;7.480;2022-12-18T06:57:33;-0.70;90.80
851;DHT22;412;51.400;7.480;2022-12-18T06:59:59;-0.70;90.60
851;DHT22;412;51.400;7.480;2022-12-18T07:02:25;-0.70;90.40
851;DHT22;412;51.400;7.480;2022-12-18T07:04:50;-0.80;90.10
851;DHT22;412;51.400;7.480;2022-12-18T07:07:16;-0.80;90.00
851;DHT22;412;51.400;7.480;2022-12-18T07:09:42;-0.90;90.00
851;DHT22;412;51.400;7.480;2022-12-18T07:12:08;-0.90;88.80
851;DHT22;412;51.400;7.480;2022-12-18T07:14:34;-0.90;89.00
851;DHT22;412;51.400;7.480;2022-12-18T07:16:59;-0.90;89.70
851;DHT22;412;51.400;7.480;2022-12-18T07:19:25;-0.90;89.50
851;DHT22;412;51.400;7.480;2022-12-18T07:21:51;-0.90;89.70
851;DHT22;412;51.400;7.480;2022-12-18T07:24:17;-1.00;89.90
851;DHT22;412;51.400;7.480;2022-12-18T07:26:45;-0.90;90.00
851;DHT22;412;51.400;7.480;2022-12-18T07:29:11;-1.00;90.00
851;DHT22;412;51.400;7.480;2022-12-18T07:31:37;-1.00;90.50
851;DHT22;412;51.400;7.480;2022-12-18T07:34:03;-1.00;90.60
851;DHT22;412;51.400;7.480;2022-12-18T07:36:29;-1.00;90.50
851;DHT22;412;51.400;7.480;2022-12-18T07:38:54;-1.00;90.80
851;DHT22;412;51.400;7.480;2022-12-18T07:41:21;-1.00;91.00
851;DHT22;412;51.400;7.480;2022-12-18T07:43:47;-0.90;91.20
851;DHT22;412;51.400;7.480;2022-12-18T07:46:13;-0.90;91.00
851;DHT22;412;51.400;7.480;2022-12-18T07:48:40;-0.90;91.10
851;DHT22;412;51.400;7.480;2022-12-18T07:51:07;-0.90;91.40
851;DHT22;412;51.400;7.480;2022-12-18T07:53:33;-0.90;91.70
851;DHT22;412;51.400;7.480;2022-12-18T07:56:01;-0.80;91.90
851;DHT22;412;51.400;7.480;2022-12-18T07:58:28;-0.80;92.20
851;DHT22;412;51.400;7.480;2022-12-18T08:00:54;-0.70;92.90
851;DHT22;412;51.400;7.480;2022-12-18T08:03:19;-0.70;92.60
851;DHT22;412;51.400;7.480;2022-12-18T08:05:45;-0.70;93.00
851;DHT22;412;51.400;7.480;2022-12-18T08:08:11;-0.50;93.30
851;DHT22;412;51.400;7.480;2022-12-18T08:10:37;-0.50;93.40
851;DHT22;412;51.400;7.480;2022-12-18T08:13:04;-0.30;94.30
851;DHT22;412;51.400;7.480;2022-12-18T08:15:29;-0.40;94.60
851;DHT22;412;51.400;7.480;2022-12-18T08:17:58;-0.30;94.90
851;DHT22;412;51.400;7.480;2022-12-18T08:20:23;-0.30;94.60
851;DHT22;412;51.400;7.480;2022-12-18T08:22:49;-0.10;94.60
851;DHT22;412;51.400;7.480;2022-12-18T08:25:15;0.00;94.20
851;DHT22;412;51.400;7.480;2022-12-18T08:27:41;0.10;94.10
851;DHT22;412;51.400;7.480;2022-12-18T08:30:07;0.20;94.00
851;DHT22;412;51.400;7.480;2022-12-18T08:32:33;0.30;93.60
851;DHT22;412;51.400;7.480;2022-12-18T08:34:59;0.40;93.40
851;DHT22;412;51.400;7.480;2022-12-18T08:37:25;0.50;93.30
851;DHT22;412;51.400;7.480;2022-12-18T08:39:53;0.70;92.60
851;DHT22;412;51.400;7.480;2022-12-18T08:42:18;0.90;92.00
851;DHT22;412;51.400;7.480;2022-12-18T08:45:03;1.00;92.00
851;DHT22;412;51.400;7.480;2022-12-18T08:47:29;1.10;91.50
851;DHT22;412;51.400;7.480;2022-12-18T08:49:55;1.20;91.60
851;DHT22;412;51.400;7.480;2022-12-18T08:52:20;1.30;91.40
851;DHT22;412;51.400;7.480;2022-12-18T08:54:46;1.50;91.30
851;DHT22;412;51.400;7.480;2022-12-18T08:57:12;1.80;91.50
851;DHT22;412;51.400;7.480;2022-12-18T08:59:38;2.30;91.50
851;DHT22;412;51.400;7.480;2022-12-18T09:02:03;2.80;89.60
851;DHT22;412;51.400;7.480;2022-12-18T09:04:29;3.20;87.50
851;DHT22;412;51.400;7.480;2022-12-18T09:06:55;4.00;83.30
851;DHT22;412;51.400;7.480;2022-12-18T09:09:20;4.90;78.60
851;DHT22;412;51.400;7.480;2022-12-18T09:11:46;6.10;75.10
851;DHT22;412;51.400;7.480;2022-12-18T09:14:12;7.20;66.90
851;DHT22;412;51.400;7.480;2022-12-18T09:16:38;8.20;59.20
851;DHT22;412;51.400;7.480;2022-12-18T09:19:04;8.60;54.80
851;DHT22;412;51.400;7.480;2022-12-18T09:21:33;8.80;53.20
851;DHT22;412;51.400;7.480;2022-12-18T09:23:59;9.10;50.30
851;DHT22;412;51.400;7.480;2022-12-18T09:26:26;9.00;49.50
851;DHT22;412;51.400;7.480;2022-12-18T09:28:52;9.00;48.60
851;DHT22;412;51.400;7.480;2022-12-18T09:31:21;9.20;49.30
851;DHT22;412;51.400;7.480;2022-12-18T09:33:47;9.40;49.10
851;DHT22;412;51.400;7.480;2022-12-18T09:36:15;9.10;47.60
851;DHT22;412;51.400;7.480;2022-12-18T09:38:41;9.10;48.70
851;DHT22;412;51.400;7.480;2022-12-18T09:47:13;9.30;51.40
851;DHT22;412;51.400;7.480;2022-12-18T09:49:43;9.20;51.60
851;DHT22;412;51.400;7.480;2022-12-18T09:52:11;9.70;52.70
851;DHT22;412;51.400;7.480;2022-12-18T09:54:42;10.20;52.70
851;DHT22;412;51.400;7.480;2022-12-18T09:57:18;10.70;51.40
851;DHT22;412;51.400;7.480;2022-12-18T10:02:52;11.10;50.90
851;DHT22;412;51.400;7.480;2022-12-18T10:08:08;11.20;49.50
851;DHT22;412;51.400;7.480;2022-12-18T10:10:59;11.00;50.10
851;DHT22;412;51.400;7.480;2022-12-18T10:13:44;10.70;49.00
851;DHT22;412;51.400;7.480;2022-12-18T10:24:32;12.00;55.00
851;DHT22;412;51.400;7.480;2022-12-18T10:27:25;12.50;51.60
851;DHT22;412;51.400;7.480;2022-12-18T10:29:52;12.80;51.00
851;DHT22;412;51.400;7.480;2022-12-18T10:32:23;13.10;50.20
851;DHT22;412;51.400;7.480;2022-12-18T10:34:53;13.30;50.90
851;DHT22;412;51.400;7.480;2022-12-18T10:37:22;13.50;54.10
851;DHT22;412;51.400;7.480;2022-12-18T10:40:11;13.60;50.20
851;DHT22;412;51.400;7.480;2022-12-18T10:42:37;13.70;48.80
851;DHT22;412;51.400;7.480;2022-12-18T10:45:15;13.80;51.20
851;DHT22;412;51.400;7.480;2022-12-18T10:47:45;13.80;51.10
851;DHT22;412;51.400;7.480;2022-12-18T10:50:31;13.90;47.50
851;DHT22;412;51.400;7.480;2022-12-18T10:52:59;13.50;44.90
851;DHT22;412;51.400;7.480;2022-12-18T10:55:34;13.70;46.20
851;DHT22;412;51.400;7.480;2022-12-18T10:58:28;13.80;48.40
851;DHT22;412;51.400;7.480;2022-12-18T11:03:46;14.10;50.00
851;DHT22;412;51.400;7.480;2022-12-18T11:06:17;14.20;48.80
851;DHT22;412;51.400;7.480;2022-12-18T11:08:58;14.40;46.30
851;DHT22;412;51.400;7.480;2022-12-18T11:11:24;14.50;47.00
851;DHT22;412;51.400;7.480;2022-12-18T11:14:05;14.70;46.80
851;DHT22;412;51.400;7.480;2022-12-18T11:16:43;14.80;46.70
851;DHT22;412;51.400;7.480;2022-12-18T11:19:24;15.00;47.00
851;DHT22;412;51.400;7.480;2022-12-18T11:21:51;15.10;43.40
851;DHT22;412;51.400;7.480;2022-12-18T11:24:29;15.20;44.10
851;DHT22;412;51.400;7.480;2022-12-18T11:27:02;15.20;44.30
851;DHT22;412;51.400;7.480;2022-12-18T11:29:36;15.20;46.00
851;DHT22;412;51.400;7.480;2022-12-18T11:34:49;15.20;46.80
851;DHT22;412;51.400;7.480;2022-12-18T11:37:17;15.20;47.90
851;DHT22;412;51.400;7.480;2022-12-18T11:40:04;15.20;48.20
851;DHT22;412;51.400;7.480;2022-12-18T11:42:41;15.20;47.20
851;DHT22;412;51.400;7.480;2022-12-18T11:50:46;15.20;47.20
851;DHT22;412;51.400;7.480;2022-12-18T11:53:13;15.20;50.00
851;DHT22;412;51.400;7.480;2022-12-18T11:55:58;15.20;52.30
851;DHT22;412;51.400;7.480;2022-12-18T12:10:00;12.00;43.10
851;DHT22;412;51.400;7.480;2022-12-18T12:26:12;9.30;48.30
851;DHT22;412;51.400;7.480;2022-12-18T12:32:07;8.70;45.50
851;DHT22;412;51.400;7.480;2022-12-18T12:34:59;8.50;46.10
851;DHT22;412;51.400;7.480;2022-12-18T12:40:01;8.30;48.20
851;DHT22;412;51.400;7.480;2022-12-18T12:42:54;8.30;48.50
851;DHT22;412;51.400;7.480;2022-12-18T12:48:19;8.00;46.50
851;DHT22;412;51.400;7.480;2022-12-18T12:50:46;7.90;45.40
851;DHT22;412;51.400;7.480;2022-12-18T12:53:21;7.90;45.40
851;DHT22;412;51.400;7.480;2022-12-18T12:55:49;7.80;45.30
851;DHT22;412;51.400;7.480;2022-12-18T13:06:50;7.80;48.10
851;DHT22;412;51.400;7.480;2022-12-18T13:09:18;7.70;48.50
851;DHT22;412;51.400;7.480;2022-12-18T13:11:47;7.80;50.10
851;DHT22;412;51.400;7.480;2022-12-18T13:14:37;7.70;48.20
851;DHT22;412;51.400;7.480;2022-12-18T13:17:35;7.60;46.50
851;DHT22;412;51.400;7.480;2022-12-18T13:20:07;7.60;48.30
851;DHT22;412;51.400;7.480;2022-12-18T13:22:44;7.50;46.30
851;DHT22;412;51.400;7.480;2022-12-18T13:25:35;7.40;46.00
851;DHT22;412;51.400;7.480;2022-12-18T13:43:53;6.70;47.40
851;DHT22;412;51.400;7.480;2022-12-18T13:46:29;6.50;47.70
851;DHT22;412;51.400;7.480;2022-12-18T13:49:02;6.50;47.90
851;DHT22;412;51.400;7.480;2022-12-18T13:51:31;6.40;48.50
851;DHT22;412;51.400;7.480;2022-12-18T13:54:00;6.10;48.70
851;DHT22;412;51.400;7.480;2022-12-18T13:56:32;6.00;49.50
851;DHT22;412;51.400;7.480;2022-12-18T14:01:56;6.00;50.10
851;DHT22;412;51.400;7.480;2022-12-18T14:04:27;6.00;50.20
851;DHT22;412;51.400;7.480;2022-12-18T14:07:17;6.10;50.30
851;DHT22;412;51.400;7.480;2022-12-18T14:09:47;6.20;50.70
851;DHT22;412;51.400;7.480;2022-12-18T14:12:18;6.20;51.10
851;DHT22;412;51.400;7.480;2022-12-18T14:17:50;6.20;51.10
851;DHT22;412;51.400;7.480;2022-12-18T14:20:17;6.00;51.50
851;DHT22;412;51.400;7.480;2022-12-18T14:22:45;5.80;51.30
851;DHT22;412;51.400;7.480;2022-12-18T14:25:29;5.60;52.10
851;DHT22;412;51.400;7.480;2022-12-18T14:30:40;5.20;52.40
851;DHT22;412;51.400;7.480;2022-12-18T14:33:15;5.20;53.10
851;DHT22;412;51.400;7.480;2022-12-18T14:36:05;5.10;53.10
851;DHT22;412;51.400;7.480;2022-12-18T14:43:24;4.60;54.10
851;DHT22;412;51.400;7.480;2022-12-18T14:45:51;4.70;55.10
851;DHT22;412;51.400;7.480;2022-12-18T14:48:38;4.60;54.60
851;DHT22;412;51.400;7.480;2022-12-18T14:53:39;4.60;55.00
851;DHT22;412;51.400;7.480;2022-12-18T14:56:34;4.60;55.10
851;DHT22;412;51.400;7.480;2022-12-18T14:59:03;4.70;54.60
851;DHT22;412;51.400;7.480;2022-12-18T15:01:36;4.80;55.50
851;DHT22;412;51.400;7.480;2022-12-18T15:04:04;4.90;55.40
851;DHT22;412;51.400;7.480;2022-12-18T15:06:37;5.00;54.80
851;DHT22;412;51.400;7.480;2022-12-18T15:09:23;5.10;55.00
851;DHT22;412;51.400;7.480;2022-12-18T15:11:49;5.20;55.40
851;DHT22;412;51.400;7.480;2022-12-18T15:14:52;5.30;55.00
851;DHT22;412;51.400;7.480;2022-12-18T15:17:23;5.40;54.70
851;DHT22;412;51.400;7.480;2022-12-18T15:19:52;5.40;56.10
851;DHT22;412;51.400;7.480;2022-12-18T15:24:47;5.60;64.20
851;DHT22;412;51.400;7.480;2022-12-18T15:27:33;6.40;72.30
851;DHT22;412;51.400;7.480;2022-12-18T15:32:39;8.20;70.40
851;DHT22;412;51.400;7.480;2022-12-18T15:37:37;9.40;62.30
851;DHT22;412;51.400;7.480;2022-12-18T15:40:03;9.80;60.00
851;DHT22;412;51.400;7.480;2022-12-18T15:42:30;10.30;61.70
851;DHT22;412;51.400;7.480;2022-12-18T15:45:14;10.60;53.90
851;DHT22;412;51.400;7.480;2022-12-18T15:47:40;10.60;52.30
851;DHT22;412;51.400;7.480;2022-12-18T15:50:07;10.90;54.20
851;DHT22;412;51.400;7.480;2022-12-18T15:52:40;11.20;51.00
851;DHT22;412;51.400;7.480;2022-12-18T15:55:13;11.40;55.00
851;DHT22;412;51.400;7.480;2022-12-18T15:57:58;11.70;53.80
851;DHT22;412;51.400;7.480;2022-12-18T16:00:23;12.10;53.40
851;DHT22;412;51.400;7.480;2022-12-18T16:02:49;12.00;49.30
851;DHT22;412;51.400;7.480;2022-12-18T16:05:17;12.20;51.20
851;DHT22;412;51.400;7.480;2022-12-18T16:07:43;12.30;50.70
851;DHT22;412;51.400;7.480;2022-12-18T16:10:10;12.00;48.50
851;DHT22;412;51.400;7.480;2022-12-18T16:12:36;11.80;47.50
851;DHT22;412;51.400;7.480;2022-12-18T16:15:03;10.80;48.10
851;DHT22;412;51.400;7.480;2022-12-18T16:17:29;10.10;50.90
851;DHT22;412;51.400;7.480;2022-12-18T16:19:55;10.30;52.00
851;DHT22;412;51.400;7.480;2022-12-18T16:22:28;10.10;52.50
851;DHT22;412;51.400;7.480;2022-12-18T16:24:56;9.90;53.10
851;DHT22;412;51.400;7.480;2022-12-18T16:27:28;10.20;51.40
851;DHT22;412;51.400;7.480;2022-12-18T16:29:53;10.20;51.40
851;DHT22;412;51.400;7.480;2022-12-18T16:32:21;9.10;49.90
851;DHT22;412;51.400;7.480;2022-12-18T16:34:47;8.70;50.80
851;DHT22;412;51.400;7.480;2022-12-18T16:37:15;8.40;51.50
851;DHT22;412;51.400;7.480;2022-12-18T16:39:41;7.80;52.60
851;DHT22;412;51.400;7.480;2022-12-18T16:42:12;6.90;54.00
851;DHT22;412;51.400;7.480;2022-12-18T16:44:40;6.70;55.50
851;DHT22;412;51.400;7.480;2022-12-18T16:47:06;6.60;56.30
851;DHT22;412;51.400;7.480;2022-12-18T16:49:32;6.50;57.10
851;DHT22;412;51.400;7.480;2022-12-18T16:51:58;6.20;58.40
851;DHT22;412;51.400;7.480;2022-12-18T16:54:23;5.50;59.90
851;DHT22;412;51.400;7.480;2022-12-18T16:56:50;5.50;61.20
851;DHT22;412;51.400;7.480;2022-12-18T16:59:16;5.60;62.80
851;DHT22;412;51.400;7.480;2022-12-18T17:01:42;5.50;63.50
851;DHT22;412;51.400;7.480;2022-12-18T17:04:10;5.50;63.90
851;DHT22;412;51.400;7.480;2022-12-18T17:06:40;5.40;64.80
851;DHT22;412;51.400;7.480;2022-12-18T17:09:09;5.50;65.20
851;DHT22;412;51.400;7.480;2022-12-18T17:11:35;5.40;66.10
851;DHT22;412;51.400;7.480;2022-12-18T17:14:09;5.40;69.40
851;DHT22;412;51.400;7.480;2022-12-18T17:16:36;5.00;68.20
851;DHT22;412;51.400;7.480;2022-12-18T17:19:03;5.20;69.30
851;DHT22;412;51.400;7.480;2022-12-18T17:21:29;5.20;69.60
851;DHT22;412;51.400;7.480;2022-12-18T17:23:58;5.20;70.10
851;DHT22;412;51.400;7.480;2022-12-18T17:26:24;5.00;71.60
851;DHT22;412;51.400;7.480;2022-12-18T17:28:50;4.70;73.40
851;DHT22;412;51.400;7.480;2022-12-18T17:31:18;4.80;75.30
851;DHT22;412;51.400;7.480;2022-12-18T17:33:45;4.70;75.90
851;DHT22;412;51.400;7.480;2022-12-18T17:36:11;4.90;77.40
851;DHT22;412;51.400;7.480;2022-12-18T17:38:37;5.00;76.50
851;DHT22;412;51.400;7.480;2022-12-18T17:41:05;4.90;76.50
851;DHT22;412;51.400;7.480;2022-12-18T17:43:31;4.60;79.10
851;DHT22;412;51.400;7.480;2022-12-18T17:46:04;4.70;79.30
851;DHT22;412;51.400;7.480;2022-12-18T17:48:30;4.60;79.40
851;DHT22;412;51.400;7.480;2022-12-18T17:51:04;4.50;80.30
851;DHT22;412;51.400;7.480;2022-12-18T17:53:31;4.40;83.40
851;DHT22;412;51.400;7.480;2022-12-18T17:55:58;4.50;82.80
851;DHT22;412;51.400;7.480;2022-12-18T17:58:26;4.50;83.00
851;DHT22;412;51.400;7.480;2022-12-18T18:00:52;4.40;83.60
851;DHT22;412;51.400;7.480;2022-12-18T18:03:17;4.40;83.60
851;DHT22;412;51.400;7.480;2022-12-18T18:05:43;4.40;84.10
851;DHT22;412;51.400;7.480;2022-12-18T18:08:09;4.30;84.50
851;DHT22;412;51.400;7.480;2022-12-18T18:10:36;4.30;84.90
851;DHT22;412;51.400;7.480;2022-12-18T18:13:08;4.30;85.30
851;DHT22;412;51.400;7.480;2022-12-18T18:16:00;4.30;84.80
851;DHT22;412;51.400;7.480;2022-12-18T18:18:28;4.40;87.00
851;DHT22;412;51.400;7.480;2022-12-18T18:20:54;4.30;85.80
851;DHT22;412;51.400;7.480;2022-12-18T18:23:19;4.30;85.90
851;DHT22;412;51.400;7.480;2022-12-18T18:25:45;4.40;86.20
851;DHT22;412;51.400;7.480;2022-12-18T18:28:11;4.40;85.90
851;DHT22;412;51.400;7.480;2022-12-18T18:30:37;4.40;86.90
851;DHT22;412;51.400;7.480;2022-12-18T18:33:02;4.60;86.30
851;DHT22;412;51.400;7.480;2022-12-18T18:35:28;4.60;84.60
851;DHT22;412;51.400;7.480;2022-12-18T18:37:54;4.40;85.20
851;DHT22;412;51.400;7.480;2022-12-18T18:40:20;4.30;86.10
851;DHT22;412;51.400;7.480;2022-12-18T18:42:46;4.20;86.40
851;DHT22;412;51.400;7.480;2022-12-18T18:45:12;4.30;87.60
851;DHT22;412;51.400;7.480;2022-12-18T18:47:38;4.40;87.00
851;DHT22;412;51.400;7.480;2022-12-18T18:50:04;4.30;86.30
851;DHT22;412;51.400;7.480;2022-12-18T18:52:30;4.10;87.30
851;DHT22;412;51.400;7.480;2022-12-18T18:54:56;4.20;88.60
851;DHT22;412;51.400;7.480;2022-12-18T18:57:22;4.30;88.10
851;DHT22;412;51.400;7.480;2022-12-18T18:59:50;4.30;88.10
851;DHT22;412;51.400;7.480;2022-12-18T19:02:16;4.40;87.50
851;DHT22;412;51.400;7.480;2022-12-18T19:04:42;4.40;87.60
851;DHT22;412;51.400;7.480;2022-12-18T19:07:08;4.60;87.30
851;DHT22;412;51.400;7.480;2022-12-18T19:09:34;4.70;86.50
851;DHT22;412;51.400;7.480;2022-12-18T19:12:01;4.60;86.50
851;DHT22;412;51.400;7.480;2022-12-18T19:14:46;4.70;86.00
851;DHT22;412;51.400;7.480;2022-12-18T19:17:12;4.60;85.90
851;DHT22;412;51.400;7.480;2022-12-18T19:19:38;4.30;86.10
851;DHT22;412;51.400;7.480;2022-12-18T19:22:03;4.40;86.90